Terminal Aerodrome Forecast
Issued by NWS Blacksburg, VA

Home | Current Version | Previous Version | Text Only | Print | Product List | Glossary On
Versions: 1 2 3 4 5 6 7 8 9 10 11 12 13 14 15 16 17 18 19 20 21 22 23 24 25 26 27 28 29 30 31 32 33 34 35 36 37 38 39 40 41 42 43 44 45
000
FTUS41 KRNK 291726
TAFBLF
TAF
KBLF 291726Z 2918/3018 25007KT P6SM SKC
     FM292000 24010KT P6SM SCT250
     FM300200 23010G18KT P6SM BKN100
     FM300600 25010KT P6SM -SHRA OVC035
     FM301100 27009G19KT 5SM -SHRA BR BKN020
     FM301400 29012KT P6SM OVC015=

USA.gov is the U.S. government's official web portal to all federal, state and local government web resources and services.